sensor_id;sensor_type;location;lat;lon;timestamp;temperature;humidity
40059;SHT31;25763;49.972;8.568;2022-10-16T00:00:52;16.12;90.81
40059;SHT31;25763;49.972;8.568;2022-10-16T00:03:17;16.12;90.79
40059;SHT31;25763;49.972;8.568;2022-10-16T00:05:44;16.12;90.73
40059;SHT31;25763;49.972;8.568;2022-10-16T00:08:12;16.12;90.71
40059;SHT31;25763;49.972;8.568;2022-10-16T00:10:38;16.10;90.70
40059;SHT31;25763;49.972;8.568;2022-10-16T00:13:04;16.11;90.74
40059;SHT31;25763;49.972;8.568;2022-10-16T00:15:30;16.12;90.73
40059;SHT31;25763;49.972;8.568;2022-10-16T00:17:57;16.12;90.79
40059;SHT31;25763;49.972;8.568;2022-10-16T00:20:23;16.14;90.84
40059;SHT31;25763;49.972;8.568;2022-10-16T00:22:48;16.15;90.88
40059;SHT31;25763;49.972;8.568;2022-10-16T00:25:14;16.15;90.85
40059;SHT31;25763;49.972;8.568;2022-10-16T00:27:39;16.15;90.85
40059;SHT31;25763;49.972;8.568;2022-10-16T00:30:05;16.15;90.84
40059;SHT31;25763;49.972;8.568;2022-10-16T00:32:30;16.15;90.83
40059;SHT31;25763;49.972;8.568;2022-10-16T00:34:56;16.14;90.91
40059;SHT31;25763;49.972;8.568;2022-10-16T00:37:21;16.18;90.95
40059;SHT31;25763;49.972;8.568;2022-10-16T00:39:47;16.18;90.94
40059;SHT31;25763;49.972;8.568;2022-10-16T00:42:18;16.15;90.90
40059;SHT31;25763;49.972;8.568;2022-10-16T00:45:04;16.18;90.96
40059;SHT31;25763;49.972;8.568;2022-10-16T00:47:30;16.18;90.95
40059;SHT31;25763;49.972;8.568;2022-10-16T00:50:10;16.18;91.09
40059;SHT31;25763;49.972;8.568;2022-10-16T00:52:39;16.20;91.02
40059;SHT31;25763;49.972;8.568;2022-10-16T00:55:08;16.21;91.07
40059;SHT31;25763;49.972;8.568;2022-10-16T00:57:34;16.20;91.07
40059;SHT31;25763;49.972;8.568;2022-10-16T01:00:00;16.18;91.09
40059;SHT31;25763;49.972;8.568;2022-10-16T01:02:26;16.17;91.15
40059;SHT31;25763;49.972;8.568;2022-10-16T01:04:52;16.20;91.20
40059;SHT31;25763;49.972;8.568;2022-10-16T01:10:27;16.18;91.11
40059;SHT31;25763;49.972;8.568;2022-10-16T01:13:09;16.18;91.06
40059;SHT31;25763;49.972;8.568;2022-10-16T01:15:47;16.15;91.08
40059;SHT31;25763;49.972;8.568;2022-10-16T01:18:19;16.15;91.04
40059;SHT31;25763;49.972;8.568;2022-10-16T01:20:51;16.15;91.04
40059;SHT31;25763;49.972;8.568;2022-10-16T01:23:36;16.14;91.03
40059;SHT31;25763;49.972;8.568;2022-10-16T01:29:12;16.15;90.85
40059;SHT31;25763;49.972;8.568;2022-10-16T01:31:44;16.10;90.74
40059;SHT31;25763;49.972;8.568;2022-10-16T01:34:13;16.14;90.66
40059;SHT31;25763;49.972;8.568;2022-10-16T01:36:52;16.07;90.58
40059;SHT31;25763;49.972;8.568;2022-10-16T01:39:21;16.08;90.56
40059;SHT31;25763;49.972;8.568;2022-10-16T01:41:54;16.03;90.52
40059;SHT31;25763;49.972;8.568;2022-10-16T01:44:25;16.01;90.46
40059;SHT31;25763;49.972;8.568;2022-10-16T01:46:53;16.03;90.40
40059;SHT31;25763;49.972;8.568;2022-10-16T01:49:21;15.97;90.26
40059;SHT31;25763;49.972;8.568;2022-10-16T01:51:52;15.93;90.28
40059;SHT31;25763;49.972;8.568;2022-10-16T01:54:19;15.91;90.23
40059;SHT31;25763;49.972;8.568;2022-10-16T01:56:46;15.88;90.13
40059;SHT31;25763;49.972;8.568;2022-10-16T01:59:15;15.86;90.03
40059;SHT31;25763;49.972;8.568;2022-10-16T02:01:46;15.83;89.98
40059;SHT31;25763;49.972;8.568;2022-10-16T02:04:33;15.87;89.94
40059;SHT31;25763;49.972;8.568;2022-10-16T02:06:59;15.83;89.86
40059;SHT31;25763;49.972;8.568;2022-10-16T02:09:26;15.83;89.83
40059;SHT31;25763;49.972;8.568;2022-10-16T02:11:53;15.83;89.73
40059;SHT31;25763;49.972;8.568;2022-10-16T02:14:21;15.81;89.71
40059;SHT31;25763;49.972;8.568;2022-10-16T02:16:47;15.83;89.67
40059;SHT31;25763;49.972;8.568;2022-10-16T02:19:13;15.84;89.59
40059;SHT31;25763;49.972;8.568;2022-10-16T02:21:41;15.86;89.58
40059;SHT31;25763;49.972;8.568;2022-10-16T02:24:27;15.86;89.55
40059;SHT31;25763;49.972;8.568;2022-10-16T02:29:38;15.87;89.65
40059;SHT31;25763;49.972;8.568;2022-10-16T02:32:06;15.91;89.64
40059;SHT31;25763;49.972;8.568;2022-10-16T02:34:32;15.91;89.58
40059;SHT31;25763;49.972;8.568;2022-10-16T02:37:00;15.93;89.61
40059;SHT31;25763;49.972;8.568;2022-10-16T02:39:28;15.91;89.65
40059;SHT31;25763;49.972;8.568;2022-10-16T02:41:54;15.97;89.64
40059;SHT31;25763;49.972;8.568;2022-10-16T02:44:19;15.97;89.61
40059;SHT31;25763;49.972;8.568;2022-10-16T02:46:45;15.98;89.64
40059;SHT31;25763;49.972;8.568;2022-10-16T02:49:10;15.98;89.64
40059;SHT31;25763;49.972;8.568;2022-10-16T02:51:36;15.98;89.70
40059;SHT31;25763;49.972;8.568;2022-10-16T02:54:02;16.00;89.67
40059;SHT31;25763;49.972;8.568;2022-10-16T02:56:27;15.98;89.61
40059;SHT31;25763;49.972;8.568;2022-10-16T02:58:53;16.00;89.68
40059;SHT31;25763;49.972;8.568;2022-10-16T03:01:18;15.97;89.62
40059;SHT31;25763;49.972;8.568;2022-10-16T03:03:43;15.96;89.63
40059;SHT31;25763;49.972;8.568;2022-10-16T03:06:09;15.96;89.66
40059;SHT31;25763;49.972;8.568;2022-10-16T03:08:34;15.97;89.64
40059;SHT31;25763;49.972;8.568;2022-10-16T03:10:59;15.98;89.46
40059;SHT31;25763;49.972;8.568;2022-10-16T03:13:25;16.00;89.41
40059;SHT31;25763;49.972;8.568;2022-10-16T03:15:50;16.03;89.40
40059;SHT31;25763;49.972;8.568;2022-10-16T03:18:16;16.01;89.36
40059;SHT31;25763;49.972;8.568;2022-10-16T03:20:42;16.01;89.45
40059;SHT31;25763;49.972;8.568;2022-10-16T03:23:08;16.03;89.52
40059;SHT31;25763;49.972;8.568;2022-10-16T03:25:33;16.05;89.47
40059;SHT31;25763;49.972;8.568;2022-10-16T03:27:59;16.04;89.40
40059;SHT31;25763;49.972;8.568;2022-10-16T03:30:24;16.05;89.37
40059;SHT31;25763;49.972;8.568;2022-10-16T03:32:49;16.05;89.38
40059;SHT31;25763;49.972;8.568;2022-10-16T03:35:19;16.07;89.28
40059;SHT31;25763;49.972;8.568;2022-10-16T03:37:45;16.07;89.34
40059;SHT31;25763;49.972;8.568;2022-10-16T03:40:10;16.08;89.36
40059;SHT31;25763;49.972;8.568;2022-10-16T03:42:36;16.05;89.35
40059;SHT31;25763;49.972;8.568;2022-10-16T03:45:01;16.10;89.35
40059;SHT31;25763;49.972;8.568;2022-10-16T03:47:27;16.14;89.20
40059;SHT31;25763;49.972;8.568;2022-10-16T03:49:52;16.14;89.15
40059;SHT31;25763;49.972;8.568;2022-10-16T03:52:17;16.11;89.10
40059;SHT31;25763;49.972;8.568;2022-10-16T03:54:43;16.18;89.16
40059;SHT31;25763;49.972;8.568;2022-10-16T03:57:08;16.17;89.00
40059;SHT31;25763;49.972;8.568;2022-10-16T03:59:34;16.11;89.14
40059;SHT31;25763;49.972;8.568;2022-10-16T04:01:59;16.11;89.10
40059;SHT31;25763;49.972;8.568;2022-10-16T04:04:24;16.11;89.03
40059;SHT31;25763;49.972;8.568;2022-10-16T04:06:50;16.08;89.03
40059;SHT31;25763;49.972;8.568;2022-10-16T04:09:15;16.10;89.04
40059;SHT31;25763;49.972;8.568;2022-10-16T04:11:41;16.08;89.05
40059;SHT31;25763;49.972;8.568;2022-10-16T04:14:06;16.10;89.03
40059;SHT31;25763;49.972;8.568;2022-10-16T04:16:31;16.08;89.03
40059;SHT31;25763;49.972;8.568;2022-10-16T04:18:57;16.05;89.06
40059;SHT31;25763;49.972;8.568;2022-10-16T04:21:22;16.03;89.09
40059;SHT31;25763;49.972;8.568;2022-10-16T04:23:48;16.04;89.08
40059;SHT31;25763;49.972;8.568;2022-10-16T04:26:14;16.01;89.11
40059;SHT31;25763;49.972;8.568;2022-10-16T04:28:39;16.08;89.05
40059;SHT31;25763;49.972;8.568;2022-10-16T04:31:06;16.14;88.92
40059;SHT31;25763;49.972;8.568;2022-10-16T04:33:31;16.11;88.77
40059;SHT31;25763;49.972;8.568;2022-10-16T04:35:58;16.12;88.72
40059;SHT31;25763;49.972;8.568;2022-10-16T04:38:24;16.11;88.69
40059;SHT31;25763;49.972;8.568;2022-10-16T04:40:50;16.08;88.74
40059;SHT31;25763;49.972;8.568;2022-10-16T04:43:15;16.10;88.62
40059;SHT31;25763;49.972;8.568;2022-10-16T04:45:41;16.14;88.60
40059;SHT31;25763;49.972;8.568;2022-10-16T04:48:06;16.18;88.62
40059;SHT31;25763;49.972;8.568;2022-10-16T04:50:31;16.18;88.52
40059;SHT31;25763;49.972;8.568;2022-10-16T04:52:57;16.14;88.44
40059;SHT31;25763;49.972;8.568;2022-10-16T04:55:22;16.14;88.46
40059;SHT31;25763;49.972;8.568;2022-10-16T04:57:48;16.20;88.40
40059;SHT31;25763;49.972;8.568;2022-10-16T05:00:13;16.20;88.39
40059;SHT31;25763;49.972;8.568;2022-10-16T05:02:39;16.21;88.29
40059;SHT31;25763;49.972;8.568;2022-10-16T05:05:04;16.24;88.27
40059;SHT31;25763;49.972;8.568;2022-10-16T05:07:30;16.25;88.31
40059;SHT31;25763;49.972;8.568;2022-10-16T05:09:56;16.24;88.31
40059;SHT31;25763;49.972;8.568;2022-10-16T05:12:21;16.26;88.22
40059;SHT31;25763;49.972;8.568;2022-10-16T05:14:46;16.21;88.32
40059;SHT31;25763;49.972;8.568;2022-10-16T05:17:12;16.14;88.43
40059;SHT31;25763;49.972;8.568;2022-10-16T05:19:37;16.12;88.55
40059;SHT31;25763;49.972;8.568;2022-10-16T05:22:02;16.21;88.51
40059;SHT31;25763;49.972;8.568;2022-10-16T05:24:28;16.25;88.33
40059;SHT31;25763;49.972;8.568;2022-10-16T05:26:53;16.22;88.23
40059;SHT31;25763;49.972;8.568;2022-10-16T05:29:19;16.18;88.28
40059;SHT31;25763;49.972;8.568;2022-10-16T05:31:44;16.20;88.32
40059;SHT31;25763;49.972;8.568;2022-10-16T05:34:10;16.12;88.42
40059;SHT31;25763;49.972;8.568;2022-10-16T05:36:35;16.12;88.52
40059;SHT31;25763;49.972;8.568;2022-10-16T05:39:01;16.10;88.56
40059;SHT31;25763;49.972;8.568;2022-10-16T05:41:26;16.07;88.63
40059;SHT31;25763;49.972;8.568;2022-10-16T05:43:53;16.08;88.68
40059;SHT31;25763;49.972;8.568;2022-10-16T05:46:19;16.08;88.67
40059;SHT31;25763;49.972;8.568;2022-10-16T05:48:44;16.10;88.67
40059;SHT31;25763;49.972;8.568;2022-10-16T05:51:12;16.08;88.58
40059;SHT31;25763;49.972;8.568;2022-10-16T05:53:38;16.07;88.63
40059;SHT31;25763;49.972;8.568;2022-10-16T05:56:05;16.03;88.78
40059;SHT31;25763;49.972;8.568;2022-10-16T05:58:33;15.96;89.04
40059;SHT31;25763;49.972;8.568;2022-10-16T06:01:05;15.96;89.33
40059;SHT31;25763;49.972;8.568;2022-10-16T06:03:30;15.96;89.36
40059;SHT31;25763;49.972;8.568;2022-10-16T06:05:56;15.93;89.46
40059;SHT31;25763;49.972;8.568;2022-10-16T06:08:23;15.96;89.47
40059;SHT31;25763;49.972;8.568;2022-10-16T06:10:57;16.00;89.39
40059;SHT31;25763;49.972;8.568;2022-10-16T06:13:24;16.07;89.39
40059;SHT31;25763;49.972;8.568;2022-10-16T06:15:50;16.01;89.42
40059;SHT31;25763;49.972;8.568;2022-10-16T06:18:15;16.01;89.54
40059;SHT31;25763;49.972;8.568;2022-10-16T06:20:40;16.07;89.48
40059;SHT31;25763;49.972;8.568;2022-10-16T06:23:06;16.10;89.40
40059;SHT31;25763;49.972;8.568;2022-10-16T06:25:31;16.18;89.21
40059;SHT31;25763;49.972;8.568;2022-10-16T06:27:57;16.20;89.03
40059;SHT31;25763;49.972;8.568;2022-10-16T06:30:22;16.24;89.17
40059;SHT31;25763;49.972;8.568;2022-10-16T06:32:47;16.26;89.23
40059;SHT31;25763;49.972;8.568;2022-10-16T06:35:13;16.26;89.19
40059;SHT31;25763;49.972;8.568;2022-10-16T06:37:38;16.26;89.22
40059;SHT31;25763;49.972;8.568;2022-10-16T06:40:04;16.22;89.54
40059;SHT31;25763;49.972;8.568;2022-10-16T06:42:30;16.14;89.83
40059;SHT31;25763;49.972;8.568;2022-10-16T06:44:55;16.14;90.08
40059;SHT31;25763;49.972;8.568;2022-10-16T06:47:20;16.12;90.14
40059;SHT31;25763;49.972;8.568;2022-10-16T06:49:46;16.14;90.07
40059;SHT31;25763;49.972;8.568;2022-10-16T06:52:11;16.24;90.04
40059;SHT31;25763;49.972;8.568;2022-10-16T06:54:37;16.32;89.96
40059;SHT31;25763;49.972;8.568;2022-10-16T06:57:02;16.36;89.82
40059;SHT31;25763;49.972;8.568;2022-10-16T06:59:27;16.47;89.64
40059;SHT31;25763;49.972;8.568;2022-10-16T07:01:53;16.43;89.50
40059;SHT31;25763;49.972;8.568;2022-10-16T07:04:18;16.43;89.48
40059;SHT31;25763;49.972;8.568;2022-10-16T07:06:44;16.46;89.44
40059;SHT31;25763;49.972;8.568;2022-10-16T07:09:10;16.49;89.46
40059;SHT31;25763;49.972;8.568;2022-10-16T07:11:39;16.47;89.44
40059;SHT31;25763;49.972;8.568;2022-10-16T07:14:05;16.47;89.52
40059;SHT31;25763;49.972;8.568;2022-10-16T07:16:34;16.60;89.47
40059;SHT31;25763;49.972;8.568;2022-10-16T07:19:01;16.61;89.21
40059;SHT31;25763;49.972;8.568;2022-10-16T07:21:30;16.67;89.13
40059;SHT31;25763;49.972;8.568;2022-10-16T07:23:58;16.63;89.22
40059;SHT31;25763;49.972;8.568;2022-10-16T07:26:24;16.52;89.37
40059;SHT31;25763;49.972;8.568;2022-10-16T07:28:51;16.53;89.45
40059;SHT31;25763;49.972;8.568;2022-10-16T07:31:17;16.52;89.68
40059;SHT31;25763;49.972;8.568;2022-10-16T07:33:44;16.47;89.82
40059;SHT31;25763;49.972;8.568;2022-10-16T07:36:11;16.47;89.96
40059;SHT31;25763;49.972;8.568;2022-10-16T07:38:37;16.50;89.99
40059;SHT31;25763;49.972;8.568;2022-10-16T07:41:05;16.52;89.81
40059;SHT31;25763;49.972;8.568;2022-10-16T07:43:32;16.45;90.05
40059;SHT31;25763;49.972;8.568;2022-10-16T07:45:57;16.47;90.20
40059;SHT31;25763;49.972;8.568;2022-10-16T07:48:24;16.49;90.01
40059;SHT31;25763;49.972;8.568;2022-10-16T07:50:51;16.50;89.84
40059;SHT31;25763;49.972;8.568;2022-10-16T07:53:17;16.55;89.84
40059;SHT31;25763;49.972;8.568;2022-10-16T07:55:42;16.53;89.93
40059;SHT31;25763;49.972;8.568;2022-10-16T07:58:07;16.56;89.88
40059;SHT31;25763;49.972;8.568;2022-10-16T08:00:33;16.53;89.90
40059;SHT31;25763;49.972;8.568;2022-10-16T08:02:58;16.55;90.02
40059;SHT31;25763;49.972;8.568;2022-10-16T08:05:31;16.55;90.14
40059;SHT31;25763;49.972;8.568;2022-10-16T08:07:57;16.60;90.12
40059;SHT31;25763;49.972;8.568;2022-10-16T08:10:25;16.60;89.94
40059;SHT31;25763;49.972;8.568;2022-10-16T08:12:51;16.64;89.97
40059;SHT31;25763;49.972;8.568;2022-10-16T08:15:17;16.67;90.04
40059;SHT31;25763;49.972;8.568;2022-10-16T08:17:43;16.77;89.92
40059;SHT31;25763;49.972;8.568;2022-10-16T08:20:09;16.80;89.91
40059;SHT31;25763;49.972;8.568;2022-10-16T08:22:35;16.75;89.76
40059;SHT31;25763;49.972;8.568;2022-10-16T08:25:00;16.74;89.79
40059;SHT31;25763;49.972;8.568;2022-10-16T08:27:31;16.71;89.90
40059;SHT31;25763;49.972;8.568;2022-10-16T08:29:56;16.73;89.98
40059;SHT31;25763;49.972;8.568;2022-10-16T08:32:22;16.65;90.09
40059;SHT31;25763;49.972;8.568;2022-10-16T08:34:47;16.75;90.16
40059;SHT31;25763;49.972;8.568;2022-10-16T08:37:13;16.80;90.09
40059;SHT31;25763;49.972;8.568;2022-10-16T08:39:38;16.84;89.99
40059;SHT31;25763;49.972;8.568;2022-10-16T08:42:45;16.84;89.96
40059;SHT31;25763;49.972;8.568;2022-10-16T08:48:18;16.91;89.93
40059;SHT31;25763;49.972;8.568;2022-10-16T08:50:45;17.04;89.73
40059;SHT31;25763;49.972;8.568;2022-10-16T08:53:23;17.09;89.61
40059;SHT31;25763;49.972;8.568;2022-10-16T08:55:51;17.05;89.47
40059;SHT31;25763;49.972;8.568;2022-10-16T08:58:28;17.08;89.34
40059;SHT31;25763;49.972;8.568;2022-10-16T09:03:27;17.09;89.40
40059;SHT31;25763;49.972;8.568;2022-10-16T09:14:06;17.29;89.45
40059;SHT31;25763;49.972;8.568;2022-10-16T09:16:36;17.30;89.43
40059;SHT31;25763;49.972;8.568;2022-10-16T09:19:15;17.30;89.35
40059;SHT31;25763;49.972;8.568;2022-10-16T09:21:45;17.36;89.39
40059;SHT31;25763;49.972;8.568;2022-10-16T09:24:17;17.43;89.21
40059;SHT31;25763;49.972;8.568;2022-10-16T09:26:44;17.40;89.33
40059;SHT31;25763;49.972;8.568;2022-10-16T09:29:14;17.39;89.30
40059;SHT31;25763;49.972;8.568;2022-10-16T09:31:40;17.50;89.15
40059;SHT31;25763;49.972;8.568;2022-10-16T09:34:29;17.43;88.98
40059;SHT31;25763;49.972;8.568;2022-10-16T09:36:56;17.49;88.94
40059;SHT31;25763;49.972;8.568;2022-10-16T09:39:22;17.57;88.79
40059;SHT31;25763;49.972;8.568;2022-10-16T09:41:47;17.71;89.01
40059;SHT31;25763;49.972;8.568;2022-10-16T09:44:21;17.84;88.96
40059;SHT31;25763;49.972;8.568;2022-10-16T09:46:47;17.81;88.69
40059;SHT31;25763;49.972;8.568;2022-10-16T09:49:24;17.91;88.59
40059;SHT31;25763;49.972;8.568;2022-10-16T09:51:50;17.96;88.48
40059;SHT31;25763;49.972;8.568;2022-10-16T09:54:20;18.20;88.47
40059;SHT31;25763;49.972;8.568;2022-10-16T09:56:46;18.47;88.06
40059;SHT31;25763;49.972;8.568;2022-10-16T09:59:21;18.75;87.21
40059;SHT31;25763;49.972;8.568;2022-10-16T10:01:51;18.55;86.76
40059;SHT31;25763;49.972;8.568;2022-10-16T10:04:21;18.37;86.79
40059;SHT31;25763;49.972;8.568;2022-10-16T10:06:54;18.35;87.34
40059;SHT31;25763;49.972;8.568;2022-10-16T10:09:37;18.16;87.24
40059;SHT31;25763;49.972;8.568;2022-10-16T10:12:05;18.08;87.77
40059;SHT31;25763;49.972;8.568;2022-10-16T10:14:47;18.03;87.94
40059;SHT31;25763;49.972;8.568;2022-10-16T10:17:24;17.95;88.01
40059;SHT31;25763;49.972;8.568;2022-10-16T10:19:54;17.89;88.43
40059;SHT31;25763;49.972;8.568;2022-10-16T10:25:00;17.91;88.33
40059;SHT31;25763;49.972;8.568;2022-10-16T10:27:43;18.08;88.24
40059;SHT31;25763;49.972;8.568;2022-10-16T10:35:22;18.71;86.84
40059;SHT31;25763;49.972;8.568;2022-10-16T10:39:04;18.89;86.65
40059;SHT31;25763;49.972;8.568;2022-10-16T10:44:11;19.18;85.46
40059;SHT31;25763;49.972;8.568;2022-10-16T10:46:51;18.87;85.82
40059;SHT31;25763;49.972;8.568;2022-10-16T10:49:25;19.03;85.75
40059;SHT31;25763;49.972;8.568;2022-10-16T10:58:21;19.84;84.63
40059;SHT31;25763;49.972;8.568;2022-10-16T11:00:57;20.31;84.52
40059;SHT31;25763;49.972;8.568;2022-10-16T11:06:16;19.91;83.06
40059;SHT31;25763;49.972;8.568;2022-10-16T11:08:52;19.88;83.59
40059;SHT31;25763;49.972;8.568;2022-10-16T11:17:03;19.76;83.56
40059;SHT31;25763;49.972;8.568;2022-10-16T11:24:46;19.88;83.14
40059;SHT31;25763;49.972;8.568;2022-10-16T11:27:16;20.00;82.94
40059;SHT31;25763;49.972;8.568;2022-10-16T11:29:51;20.05;82.83
40059;SHT31;25763;49.972;8.568;2022-10-16T11:32:24;20.03;82.49
40059;SHT31;25763;49.972;8.568;2022-10-16T11:35:05;20.22;82.53
40059;SHT31;25763;49.972;8.568;2022-10-16T11:37:37;19.91;82.98
40059;SHT31;25763;49.972;8.568;2022-10-16T11:40:27;19.58;82.80
40059;SHT31;25763;49.972;8.568;2022-10-16T11:43:15;19.63;83.36
40059;SHT31;25763;49.972;8.568;2022-10-16T11:45:44;19.62;83.30
40059;SHT31;25763;49.972;8.568;2022-10-16T11:48:35;19.87;83.07
40059;SHT31;25763;49.972;8.568;2022-10-16T11:51:29;19.88;82.43
40059;SHT31;25763;49.972;8.568;2022-10-16T11:54:14;20.04;82.32
40059;SHT31;25763;49.972;8.568;2022-10-16T11:56:43;20.53;82.55
40059;SHT31;25763;49.972;8.568;2022-10-16T11:59:32;20.59;81.22
40059;SHT31;25763;49.972;8.568;2022-10-16T12:04:49;20.95;79.31
40059;SHT31;25763;49.972;8.568;2022-10-16T12:07:24;20.95;77.49
40059;SHT31;25763;49.972;8.568;2022-10-16T12:09:52;21.05;78.73
40059;SHT31;25763;49.972;8.568;2022-10-16T12:12:26;21.06;78.66
40059;SHT31;25763;49.972;8.568;2022-10-16T12:15:24;21.19;78.39
40059;SHT31;25763;49.972;8.568;2022-10-16T12:17:49;21.47;78.61
40059;SHT31;25763;49.972;8.568;2022-10-16T12:20:21;21.50;77.18
40059;SHT31;25763;49.972;8.568;2022-10-16T12:23:06;21.32;77.04
40059;SHT31;25763;49.972;8.568;2022-10-16T12:25:34;21.32;76.92
40059;SHT31;25763;49.972;8.568;2022-10-16T12:28:05;21.40;76.41
40059;SHT31;25763;49.972;8.568;2022-10-16T12:30:36;21.28;76.30
40059;SHT31;25763;49.972;8.568;2022-10-16T12:33:05;21.06;76.92
40059;SHT31;25763;49.972;8.568;2022-10-16T12:35:33;20.84;77.19
40059;SHT31;25763;49.972;8.568;2022-10-16T12:38:35;20.71;78.13
40059;SHT31;25763;49.972;8.568;2022-10-16T12:41:07;20.56;78.99
40059;SHT31;25763;49.972;8.568;2022-10-16T12:43:42;20.46;79.67
40059;SHT31;25763;49.972;8.568;2022-10-16T12:48:33;20.32;79.80
40059;SHT31;25763;49.972;8.568;2022-10-16T12:51:21;20.52;80.02
40059;SHT31;25763;49.972;8.568;2022-10-16T12:53:59;20.45;80.24
40059;SHT31;25763;49.972;8.568;2022-10-16T12:59:20;20.31;79.87
40059;SHT31;25763;49.972;8.568;2022-10-16T13:05:09;20.24;80.68
40059;SHT31;25763;49.972;8.568;2022-10-16T13:21:49;20.33;81.01
40059;SHT31;25763;49.972;8.568;2022-10-16T13:27:04;20.31;80.03
40059;SHT31;25763;49.972;8.568;2022-10-16T13:29:31;20.50;80.23
40059;SHT31;25763;49.972;8.568;2022-10-16T13:31:58;20.63;81.30
40059;SHT31;25763;49.972;8.568;2022-10-16T13:34:26;20.70;80.85
40059;SHT31;25763;49.972;8.568;2022-10-16T13:36:53;20.81;80.73
40059;SHT31;25763;49.972;8.568;2022-10-16T13:39:27;20.87;79.97
40059;SHT31;25763;49.972;8.568;2022-10-16T13:42:05;20.95;80.42
40059;SHT31;25763;49.972;8.568;2022-10-16T13:44:36;20.85;80.09
40059;SHT31;25763;49.972;8.568;2022-10-16T13:47:04;20.74;79.71
40059;SHT31;25763;49.972;8.568;2022-10-16T13:49:30;20.70;79.00
40059;SHT31;25763;49.972;8.568;2022-10-16T13:51:59;20.66;79.32
40059;SHT31;25763;49.972;8.568;2022-10-16T13:54:26;20.64;79.18
40059;SHT31;25763;49.972;8.568;2022-10-16T13:56:52;20.56;79.21
40059;SHT31;25763;49.972;8.568;2022-10-16T13:59:33;20.59;80.09
40059;SHT31;25763;49.972;8.568;2022-10-16T14:01:59;20.64;80.24
40059;SHT31;25763;49.972;8.568;2022-10-16T14:04:32;20.56;79.93
40059;SHT31;25763;49.972;8.568;2022-10-16T14:06:58;20.40;80.20
40059;SHT31;25763;49.972;8.568;2022-10-16T14:09:24;20.26;80.47
40059;SHT31;25763;49.972;8.568;2022-10-16T14:12:03;20.22;80.90
40059;SHT31;25763;49.972;8.568;2022-10-16T14:14:41;20.12;80.98
40059;SHT31;25763;49.972;8.568;2022-10-16T14:17:14;20.12;81.45
40059;SHT31;25763;49.972;8.568;2022-10-16T14:19:40;20.11;81.88
40059;SHT31;25763;49.972;8.568;2022-10-16T14:22:35;20.11;81.90
40059;SHT31;25763;49.972;8.568;2022-10-16T14:25:24;20.24;81.82
40059;SHT31;25763;49.972;8.568;2022-10-16T14:33:23;20.45;80.97
40059;SHT31;25763;49.972;8.568;2022-10-16T14:36:11;20.43;80.31
40059;SHT31;25763;49.972;8.568;2022-10-16T14:38:39;20.39;79.89
40059;SHT31;25763;49.972;8.568;2022-10-16T14:41:05;20.39;80.28
40059;SHT31;25763;49.972;8.568;2022-10-16T14:43:36;20.36;80.34
40059;SHT31;25763;49.972;8.568;2022-10-16T14:46:05;20.38;80.44
40059;SHT31;25763;49.972;8.568;2022-10-16T14:48:32;20.29;80.41
40059;SHT31;25763;49.972;8.568;2022-10-16T14:50:57;20.24;80.90
40059;SHT31;25763;49.972;8.568;2022-10-16T14:53:23;20.31;81.16
40059;SHT31;25763;49.972;8.568;2022-10-16T14:55:48;20.22;81.21
40059;SHT31;25763;49.972;8.568;2022-10-16T14:58:16;20.20;81.46
40059;SHT31;25763;49.972;8.568;2022-10-16T15:00:43;20.21;81.48
40059;SHT31;25763;49.972;8.568;2022-10-16T15:03:08;20.28;81.54
40059;SHT31;25763;49.972;8.568;2022-10-16T15:05:33;20.24;81.60
40059;SHT31;25763;49.972;8.568;2022-10-16T15:07:59;20.29;81.59
40059;SHT31;25763;49.972;8.568;2022-10-16T15:10:26;20.25;81.88
40059;SHT31;25763;49.972;8.568;2022-10-16T15:12:52;20.32;81.69
40059;SHT31;25763;49.972;8.568;2022-10-16T15:15:25;20.33;81.90
40059;SHT31;25763;49.972;8.568;2022-10-16T15:17:53;20.36;81.84
40059;SHT31;25763;49.972;8.568;2022-10-16T15:20:21;20.28;81.78
40059;SHT31;25763;49.972;8.568;2022-10-16T15:22:47;20.25;82.15
40059;SHT31;25763;49.972;8.568;2022-10-16T15:25:48;20.26;82.24
40059;SHT31;25763;49.972;8.568;2022-10-16T15:28:15;20.26;81.99
40059;SHT31;25763;49.972;8.568;2022-10-16T15:30:41;20.21;81.95
40059;SHT31;25763;49.972;8.568;2022-10-16T15:33:12;20.12;82.06
40059;SHT31;25763;49.972;8.568;2022-10-16T15:35:39;20.12;82.14
40059;SHT31;25763;49.972;8.568;2022-10-16T15:38:04;20.14;82.22
40059;SHT31;25763;49.972;8.568;2022-10-16T15:40:29;20.14;82.26
40059;SHT31;25763;49.972;8.568;2022-10-16T15:42:55;20.21;82.64
40059;SHT31;25763;49.972;8.568;2022-10-16T15:45:20;20.24;82.64
40059;SHT31;25763;49.972;8.568;2022-10-16T15:47:46;20.05;82.43
40059;SHT31;25763;49.972;8.568;2022-10-16T15:50:13;20.01;82.69
40059;SHT31;25763;49.972;8.568;2022-10-16T15:52:40;19.93;82.66
40059;SHT31;25763;49.972;8.568;2022-10-16T15:55:08;19.90;82.82
40059;SHT31;25763;49.972;8.568;2022-10-16T15:57:34;19.86;83.06
40059;SHT31;25763;49.972;8.568;2022-10-16T16:00:00;19.81;83.12
40059;SHT31;25763;49.972;8.568;2022-10-16T16:02:25;19.76;83.39
40059;SHT31;25763;49.972;8.568;2022-10-16T16:04:51;19.69;83.62
40059;SHT31;25763;49.972;8.568;2022-10-16T16:07:17;19.69;83.77
40059;SHT31;25763;49.972;8.568;2022-10-16T16:09:42;19.67;83.80
40059;SHT31;25763;49.972;8.568;2022-10-16T16:12:10;19.58;84.08
40059;SHT31;25763;49.972;8.568;2022-10-16T16:14:35;19.56;84.17
40059;SHT31;25763;49.972;8.568;2022-10-16T16:17:01;19.51;84.30
40059;SHT31;25763;49.972;8.568;2022-10-16T16:19:27;19.45;84.58
40059;SHT31;25763;49.972;8.568;2022-10-16T16:21:52;19.38;84.79
40059;SHT31;25763;49.972;8.568;2022-10-16T16:24:18;19.34;85.00
40059;SHT31;25763;49.972;8.568;2022-10-16T16:26:43;19.28;85.23
40059;SHT31;25763;49.972;8.568;2022-10-16T16:29:13;19.24;85.64
40059;SHT31;25763;49.972;8.568;2022-10-16T16:31:39;19.23;85.94
40059;SHT31;25763;49.972;8.568;2022-10-16T16:34:05;19.23;86.23
40059;SHT31;25763;49.972;8.568;2022-10-16T16:36:31;19.21;86.24
40059;SHT31;25763;49.972;8.568;2022-10-16T16:38:57;19.12;86.33
40059;SHT31;25763;49.972;8.568;2022-10-16T16:41:26;19.07;86.45
40059;SHT31;25763;49.972;8.568;2022-10-16T16:43:52;18.97;86.82
40059;SHT31;25763;49.972;8.568;2022-10-16T16:46:18;18.86;87.11
40059;SHT31;25763;49.972;8.568;2022-10-16T16:48:44;18.85;87.23
40059;SHT31;25763;49.972;8.568;2022-10-16T16:51:12;18.75;87.61
40059;SHT31;25763;49.972;8.568;2022-10-16T16:53:40;18.75;87.80
40059;SHT31;25763;49.972;8.568;2022-10-16T16:56:06;18.75;87.65
40059;SHT31;25763;49.972;8.568;2022-10-16T16:58:32;18.68;87.60
40059;SHT31;25763;49.972;8.568;2022-10-16T17:00:58;18.61;88.10
40059;SHT31;25763;49.972;8.568;2022-10-16T17:03:27;18.57;88.20
40059;SHT31;25763;49.972;8.568;2022-10-16T17:05:57;18.50;88.32
40059;SHT31;25763;49.972;8.568;2022-10-16T17:08:23;18.45;88.44